Time;durP1;ratioP1;P1;durP2;ratioP2;P2;SDS_P1;SDS_P2;PMS_P1;PMS_P2;Temp;Humidity;BMP_temperature;BMP_pressure;BME280_temperature;BME280_humidity;BME280_pressure;Samples;Min_cycle;Max_cycle;Signal;HPM_P1;HPM_P2
2023/10/01 00:00:05;;;;;;;0.40;0.40;;;14.50;99.90;;;;;;5044210;28;20174;-72
2023/10/01 00:02:34;;;;;;;0.45;0.45;;;14.50;99.90;;;;;;5048269;28;20049;-72
2023/10/01 00:05:00;;;;;;;0.30;0.30;;;14.50;99.90;;;;;;5034658;28;20226;-72
2023/10/01 00:07:29;;;;;;;0.77;0.70;;;14.50;99.90;;;;;;5046292;28;20041;-72
2023/10/01 00:09:55;;;;;;;0.60;0.60;;;14.60;99.90;;;;;;5052379;28;20037;-72
2023/10/01 00:12:23;;;;;;;0.43;0.43;;;14.50;99.90;;;;;;5032842;28;20062;-72
2023/10/01 00:14:52;;;;;;;0.32;0.32;;;14.50;99.90;;;;;;5033455;28;20092;-72
2023/10/01 00:17:22;;;;;;;0.30;0.30;;;14.50;99.90;;;;;;5042208;28;20045;-72
2023/10/01 00:19:47;;;;;;;0.43;0.43;;;14.50;99.90;;;;;;5040968;28;20049;-73
2023/10/01 00:22:14;;;;;;;0.40;0.40;;;14.40;99.90;;;;;;5046015;28;20045;-72
2023/10/01 00:24:41;;;;;;;0.30;0.30;;;14.40;99.90;;;;;;5058196;28;20044;-72
2023/10/01 00:27:09;;;;;;;0.30;0.30;;;14.40;99.90;;;;;;5024242;28;20045;-72
2023/10/01 00:29:34;;;;;;;0.30;0.30;;;14.40;99.90;;;;;;5037952;28;20491;-72
2023/10/01 00:32:00;;;;;;;0.70;0.70;;;14.30;99.90;;;;;;5033975;28;20036;-74
2023/10/01 00:34:26;;;;;;;0.40;0.40;;;14.30;99.90;;;;;;5037264;28;20033;-71
2023/10/01 00:36:52;;;;;;;0.50;0.50;;;14.20;99.90;;;;;;5045582;28;20106;-75
2023/10/01 00:39:18;;;;;;;0.47;0.47;;;14.20;99.90;;;;;;5047273;28;20434;-72
2023/10/01 00:41:45;;;;;;;0.40;0.40;;;14.10;99.90;;;;;;5052362;28;20073;-72
2023/10/01 00:44:12;;;;;;;0.40;0.40;;;14.10;99.90;;;;;;5043600;28;20545;-72
2023/10/01 00:46:38;;;;;;;0.73;0.73;;;14.10;99.90;;;;;;5032316;28;20049;-74
2023/10/01 00:49:05;;;;;;;0.40;0.40;;;14.10;99.90;;;;;;5025114;28;20045;-73
2023/10/01 00:51:32;;;;;;;0.30;0.30;;;14.00;99.90;;;;;;5040574;28;20041;-73
2023/10/01 00:54:01;;;;;;;0.50;0.50;;;14.00;99.90;;;;;;5046403;28;20067;-72
2023/10/01 00:56:27;;;;;;;0.45;0.45;;;14.00;99.90;;;;;;5031269;28;20487;-72
2023/10/01 00:58:53;;;;;;;0.40;0.40;;;14.00;99.90;;;;;;5048561;28;20041;-72
2023/10/01 01:01:19;;;;;;;0.50;0.50;;;14.00;99.90;;;;;;5044745;28;20057;-72
2023/10/01 01:03:52;;;;;;;0.65;0.65;;;13.90;99.90;;;;;;5044338;28;20045;-72
2023/10/01 01:06:23;;;;;;;0.40;0.40;;;14.00;99.90;;;;;;5037992;28;20436;-72
2023/10/01 01:08:54;;;;;;;0.40;0.40;;;13.90;99.90;;;;;;5042126;28;20433;-72
2023/10/01 01:11:26;;;;;;;0.60;0.60;;;13.90;99.90;;;;;;5036252;28;20041;-72
2023/10/01 01:13:51;;;;;;;0.40;0.40;;;13.90;99.90;;;;;;5034019;28;20037;-72
2023/10/01 01:16:19;;;;;;;0.60;0.60;;;13.90;99.90;;;;;;5042827;28;20559;-72
2023/10/01 01:18:47;;;;;;;0.25;0.25;;;13.90;99.90;;;;;;5032908;28;20076;-71
2023/10/01 01:21:13;;;;;;;0.30;0.30;;;13.90;99.90;;;;;;5041625;28;20124;-74
2023/10/01 01:23:46;;;;;;;0.40;0.40;;;13.80;99.90;;;;;;5053713;28;20090;-72
2023/10/01 01:26:22;;;;;;;0.40;0.40;;;13.80;99.90;;;;;;5041640;28;20044;-72
2023/10/01 01:28:48;;;;;;;0.40;0.40;;;13.80;99.90;;;;;;5040952;28;20047;-71
2023/10/01 01:31:14;;;;;;;0.40;0.40;;;13.80;99.90;;;;;;5043457;28;20491;-75
2023/10/01 01:33:40;;;;;;;0.40;0.40;;;13.80;99.90;;;;;;5049836;28;20036;-71
2023/10/01 01:36:09;;;;;;;0.40;0.40;;;13.70;99.90;;;;;;5029782;28;20088;-72
2023/10/01 01:38:38;;;;;;;0.68;0.68;;;13.70;99.90;;;;;;5055928;28;20482;-72
2023/10/01 01:41:06;;;;;;;0.22;0.22;;;13.60;99.90;;;;;;5050050;28;20406;-73
2023/10/01 01:43:32;;;;;;;0.40;0.40;;;13.60;99.90;;;;;;5042020;28;20045;-71
2023/10/01 01:46:08;;;;;;;0.40;0.40;;;13.60;99.90;;;;;;5037694;28;20037;-71
2023/10/01 01:48:37;;;;;;;0.30;0.30;;;13.60;99.90;;;;;;5042932;28;20406;-71
2023/10/01 01:51:04;;;;;;;0.32;0.32;;;13.70;99.90;;;;;;5040807;28;20052;-71
2023/10/01 01:53:41;;;;;;;0.40;0.40;;;13.60;99.90;;;;;;5042187;28;20077;-75
2023/10/01 01:56:16;;;;;;;0.85;0.85;;;13.60;99.90;;;;;;5046405;28;20066;-71
2023/10/01 01:58:43;;;;;;;0.50;0.50;;;13.70;99.90;;;;;;5051277;28;20052;-72
2023/10/01 02:01:17;;;;;;;0.80;0.80;;;13.70;99.90;;;;;;5038402;28;20053;-71
2023/10/01 02:03:50;;;;;;;0.30;0.30;;;13.70;99.90;;;;;;5045281;28;20124;-71
2023/10/01 02:06:26;;;;;;;0.40;0.40;;;13.70;99.90;;;;;;5042652;28;20036;-72
2023/10/01 02:08:54;;;;;;;0.50;0.50;;;13.80;99.90;;;;;;5057476;28;20071;-71
2023/10/01 02:11:21;;;;;;;0.30;0.30;;;13.80;99.90;;;;;;5039509;28;20037;-72
2023/10/01 02:13:50;;;;;;;0.30;0.30;;;13.80;99.90;;;;;;5024919;28;20120;-71
2023/10/01 02:18:57;;;;;;;0.40;0.40;;;13.90;99.90;;;;;;5040631;28;20511;-72
2023/10/01 02:21:42;;;;;;;0.40;0.40;;;13.90;99.90;;;;;;5031352;28;20042;-72
2023/10/01 02:24:19;;;;;;;1.35;0.80;;;13.90;99.90;;;;;;5038156;28;20037;-71
2023/10/01 02:26:46;;;;;;;0.95;0.68;;;14.00;99.90;;;;;;5043863;28;20044;-75
2023/10/01 02:29:13;;;;;;;3.55;1.77;;;14.00;99.90;;;;;;5029372;28;20048;-72
2023/10/01 02:31:47;;;;;;;0.50;0.50;;;14.00;99.90;;;;;;5052117;28;20040;-71
2023/10/01 02:34:18;;;;;;;0.75;0.75;;;14.00;99.90;;;;;;5047571;28;20037;-71
2023/10/01 02:36:44;;;;;;;3.75;1.05;;;14.00;99.90;;;;;;5052905;28;20040;-72
2023/10/01 02:39:20;;;;;;;0.85;0.85;;;14.10;99.90;;;;;;5044569;28;20058;-72
2023/10/01 02:42:09;;;;;;;0.60;0.60;;;14.10;99.90;;;;;;5035653;28;20059;-73
2023/10/01 02:44:34;;;;;;;0.55;0.55;;;14.10;99.90;;;;;;5039967;28;20052;-72
2023/10/01 02:47:04;;;;;;;0.40;0.40;;;14.10;99.90;;;;;;5034856;28;20076;-71
2023/10/01 02:49:33;;;;;;;0.40;0.40;;;14.10;99.90;;;;;;5031637;28;20179;-71
2023/10/01 02:51:59;;;;;;;0.70;0.70;;;14.10;99.90;;;;;;5031580;28;20053;-71
2023/10/01 02:54:28;;;;;;;0.70;0.70;;;14.10;99.90;;;;;;5027618;28;20503;-71
2023/10/01 02:57:12;;;;;;;0.40;0.40;;;14.20;99.90;;;;;;5028661;28;20406;-71
2023/10/01 03:02:30;;;;;;;0.93;0.73;;;14.20;99.90;;;;;;5063866;28;20117;-74
2023/10/01 03:05:02;;;;;;;0.63;0.63;;;14.20;99.90;;;;;;5056725;28;20074;-72
2023/10/01 03:07:38;;;;;;;1.05;1.05;;;14.20;99.90;;;;;;5058763;28;20056;-74
2023/10/01 03:10:28;;;;;;;0.45;0.45;;;14.20;99.90;;;;;;5061406;28;20398;-71
2023/10/01 03:13:04;;;;;;;1.27;1.17;;;14.30;99.90;;;;;;5060317;28;20097;-71
2023/10/01 03:15:35;;;;;;;0.70;0.70;;;14.30;99.90;;;;;;5060738;28;20041;-71
2023/10/01 03:18:07;;;;;;;0.77;0.77;;;14.30;99.90;;;;;;5062445;28;20048;-72
2023/10/01 03:23:05;;;;;;;0.65;0.65;;;14.30;99.90;;;;;;5067742;28;20044;-71
2023/10/01 03:25:42;;;;;;;0.65;0.65;;;14.30;99.90;;;;;;5063543;28;20502;-71
2023/10/01 03:28:26;;;;;;;0.40;0.40;;;14.30;99.90;;;;;;5067728;28;20064;-71
2023/10/01 03:31:09;;;;;;;0.77;0.77;;;14.30;99.90;;;;;;5063499;28;20127;-72
2023/10/01 03:33:40;;;;;;;3.88;1.80;;;14.30;99.90;;;;;;5039301;28;20065;-71
2023/10/01 03:36:10;;;;;;;0.65;0.63;;;14.30;99.90;;;;;;5063188;28;20489;-71
2023/10/01 03:38:44;;;;;;;0.57;0.57;;;14.30;99.90;;;;;;5049985;28;20076;-72
2023/10/01 03:41:20;;;;;;;1.00;0.85;;;14.30;99.90;;;;;;5058458;28;20455;-71
2023/10/01 03:43:47;;;;;;;0.30;0.30;;;14.30;99.90;;;;;;5056537;28;20328;-71
2023/10/01 03:46:14;;;;;;;3.10;1.23;;;14.30;99.90;;;;;;5065333;28;20494;-72
2023/10/01 03:54:19;;;;;;;0.50;0.50;;;14.30;99.90;;;;;;5058564;28;20097;-71
2023/10/01 03:56:56;;;;;;;0.30;0.30;;;14.30;99.90;;;;;;5060378;28;20067;-71
2023/10/01 03:59:32;;;;;;;0.82;0.82;;;14.40;99.90;;;;;;5059831;28;20398;-71
2023/10/01 04:01:59;;;;;;;1.48;1.38;;;14.30;99.90;;;;;;5035233;28;20133;-74
2023/10/01 04:04:27;;;;;;;1.17;0.77;;;14.40;99.90;;;;;;5059721;28;20041;-71
2023/10/01 04:07:02;;;;;;;0.50;0.50;;;14.40;99.90;;;;;;5058689;28;20037;-74
2023/10/01 04:09:29;;;;;;;0.60;0.60;;;14.40;99.90;;;;;;5040734;28;20593;-71
2023/10/01 04:14:48;;;;;;;0.60;0.60;;;14.40;99.90;;;;;;5048250;28;20045;-72
2023/10/01 04:17:17;;;;;;;1.23;1.15;;;14.40;99.90;;;;;;5038106;28;20056;-71
2023/10/01 04:19:48;;;;;;;0.60;0.60;;;14.40;99.90;;;;;;5059312;28;20083;-72
2023/10/01 04:22:18;;;;;;;0.57;0.57;;;14.40;99.90;;;;;;5073433;28;20498;-71
2023/10/01 04:24:44;;;;;;;0.77;0.77;;;14.40;99.90;;;;;;5047727;28;20394;-75
2023/10/01 04:27:23;;;;;;;0.55;0.55;;;14.40;99.90;;;;;;5065286;28;20032;-73
2023/10/01 04:29:57;;;;;;;0.50;0.50;;;14.40;99.90;;;;;;5065054;28;20041;-74
2023/10/01 04:32:29;;;;;;;0.40;0.40;;;14.40;99.90;;;;;;5040287;28;20039;-72
2023/10/01 04:34:59;;;;;;;0.50;0.50;;;14.40;99.90;;;;;;5052959;28;20064;-72
2023/10/01 04:37:36;;;;;;;1.08;1.08;;;14.40;99.90;;;;;;5057178;28;20036;-71
2023/10/01 04:40:51;;;;;;;1.15;1.10;;;14.40;99.90;;;;;;5054912;28;20044;-71
2023/10/01 04:42:52;;;;;;;0.93;0.93;;;14.40;99.90;;;;;;5050876;28;20036;-71
2023/10/01 04:45:24;;;;;;;0.52;0.52;;;14.40;99.90;;;;;;5061984;28;20493;-71
2023/10/01 04:47:55;;;;;;;1.15;1.05;;;14.40;99.90;;;;;;5065311;28;20049;-71
2023/10/01 04:50:29;;;;;;;0.73;0.73;;;14.40;99.90;;;;;;5051666;28;20048;-73
2023/10/01 04:52:59;;;;;;;1.65;0.50;;;14.40;99.90;;;;;;5047326;28;20051;-72
2023/10/01 04:55:28;;;;;;;0.82;0.82;;;14.40;99.90;;;;;;5049675;28;20411;-72
2023/10/01 04:57:57;;;;;;;0.70;0.70;;;14.40;99.90;;;;;;5060447;28;20032;-72
2023/10/01 05:00:26;;;;;;;0.80;0.80;;;14.40;99.90;;;;;;5058001;28;20044;-72
2023/10/01 05:02:52;;;;;;;0.63;0.63;;;14.40;99.90;;;;;;5058910;28;20109;-72
2023/10/01 05:05:28;;;;;;;0.57;0.52;;;14.40;99.90;;;;;;5067485;28;20082;-73
2023/10/01 05:08:01;;;;;;;0.50;0.50;;;14.40;99.90;;;;;;5056146;28;20078;-71
2023/10/01 05:10:27;;;;;;;0.73;0.73;;;14.40;99.90;;;;;;5043589;28;20036;-71
2023/10/01 05:12:58;;;;;;;0.80;0.80;;;14.40;99.90;;;;;;5061212;28;20039;-71
2023/10/01 05:15:36;;;;;;;0.75;0.75;;;14.40;99.90;;;;;;5065022;28;20047;-72
2023/10/01 05:18:02;;;;;;;0.43;0.43;;;14.40;99.90;;;;;;5062995;28;20470;-74
2023/10/01 05:20:28;;;;;;;1.35;1.25;;;14.40;99.90;;;;;;5062553;28;21140;-71
2023/10/01 05:22:57;;;;;;;0.70;0.68;;;14.40;99.90;;;;;;5042825;28;20037;-72
2023/10/01 05:25:27;;;;;;;1.98;1.13;;;14.40;99.90;;;;;;5063329;28;20036;-71
2023/10/01 05:27:56;;;;;;;0.40;0.40;;;14.40;99.90;;;;;;5061043;28;20040;-71
2023/10/01 05:30:36;;;;;;;0.65;0.65;;;14.40;99.90;;;;;;5061175;28;20043;-72
2023/10/01 05:33:06;;;;;;;0.50;0.50;;;14.40;99.90;;;;;;5062864;28;20040;-71
2023/10/01 05:35:48;;;;;;;0.77;0.77;;;14.40;99.90;;;;;;5070019;28;20056;-71
2023/10/01 05:38:17;;;;;;;1.23;1.13;;;14.40;99.90;;;;;;5070387;28;20109;-71
2023/10/01 05:40:44;;;;;;;0.50;0.50;;;14.50;99.90;;;;;;5072874;28;20078;-72
2023/10/01 05:43:13;;;;;;;0.77;0.77;;;14.40;99.90;;;;;;5067756;28;20048;-72
2023/10/01 05:45:52;;;;;;;0.60;0.60;;;14.50;99.90;;;;;;5071374;28;20040;-71
2023/10/01 05:48:19;;;;;;;1.02;1.02;;;14.40;99.90;;;;;;5061339;28;20253;-72
2023/10/01 05:50:49;;;;;;;0.40;0.40;;;14.40;99.90;;;;;;5068088;28;20043;-73
2023/10/01 05:53:17;;;;;;;0.60;0.60;;;14.40;99.90;;;;;;5072165;28;20036;-72
2023/10/01 05:55:43;;;;;;;0.60;0.60;;;14.40;99.90;;;;;;5049954;28;20035;-72
2023/10/01 05:58:19;;;;;;;0.40;0.40;;;14.40;99.90;;;;;;5043610;28;20127;-71
2023/10/01 06:00:58;;;;;;;0.50;0.50;;;14.40;99.90;;;;;;5064435;28;20110;-72
2023/10/01 06:03:25;;;;;;;1.00;0.98;;;14.30;99.90;;;;;;5064707;28;20036;-72
2023/10/01 06:05:58;;;;;;;0.60;0.60;;;14.30;99.90;;;;;;5059723;28;20041;-71
2023/10/01 06:08:44;;;;;;;0.40;0.40;;;14.30;99.90;;;;;;5046157;28;20127;-72
2023/10/01 06:11:13;;;;;;;0.40;0.40;;;14.30;99.90;;;;;;5072603;28;20024;-72
2023/10/01 06:13:51;;;;;;;0.47;0.47;;;14.30;99.90;;;;;;5068743;28;20085;-72
2023/10/01 06:16:22;;;;;;;0.50;0.50;;;14.30;99.90;;;;;;5071989;28;20052;-72
2023/10/01 06:18:56;;;;;;;0.38;0.38;;;14.30;99.90;;;;;;5042912;28;20119;-72
2023/10/01 06:21:34;;;;;;;0.40;0.40;;;14.30;99.90;;;;;;5059860;28;20264;-72
2023/10/01 06:24:10;;;;;;;1.10;0.95;;;14.30;99.90;;;;;;5071543;28;20043;-71
2023/10/01 06:26:50;;;;;;;0.30;0.30;;;14.30;99.90;;;;;;5050061;28;20044;-72
2023/10/01 06:29:16;;;;;;;0.50;0.50;;;14.30;99.90;;;;;;5075401;28;20040;-72
2023/10/01 06:32:02;;;;;;;0.40;0.40;;;14.30;99.90;;;;;;5050690;28;20039;-72
2023/10/01 06:34:32;;;;;;;0.57;0.57;;;14.30;99.90;;;;;;5059007;28;20124;-72
2023/10/01 06:36:59;;;;;;;0.30;0.30;;;14.30;99.90;;;;;;5060969;28;20044;-72
2023/10/01 06:39:25;;;;;;;0.60;0.60;;;14.30;99.90;;;;;;5067908;28;20035;-72
2023/10/01 06:41:54;;;;;;;2.92;0.70;;;14.40;99.90;;;;;;5065638;28;20375;-73
2023/10/01 06:44:22;;;;;;;1.40;1.38;;;14.40;99.90;;;;;;5039038;28;20097;-72
2023/10/01 06:46:48;;;;;;;0.65;0.65;;;14.40;99.90;;;;;;5055633;28;20044;-72
2023/10/01 06:49:18;;;;;;;0.70;0.68;;;14.40;99.90;;;;;;5061983;28;20126;-72
2023/10/01 06:51:44;;;;;;;0.75;0.75;;;14.50;99.90;;;;;;5055821;28;20072;-72
2023/10/01 06:54:14;;;;;;;4.65;1.05;;;14.40;99.90;;;;;;5053938;28;20036;-72
2023/10/01 06:56:47;;;;;;;0.73;0.73;;;14.50;99.90;;;;;;5053661;28;20045;-72
2023/10/01 06:59:32;;;;;;;0.47;0.47;;;14.50;99.90;;;;;;5082620;28;20066;-71
2023/10/01 07:01:59;;;;;;;1.00;1.00;;;14.50;99.90;;;;;;5054292;28;20549;-71
2023/10/01 07:04:25;;;;;;;0.60;0.60;;;14.50;99.90;;;;;;5067646;28;20044;-72
2023/10/01 07:06:51;;;;;;;0.65;0.65;;;14.50;99.90;;;;;;5057242;28;20048;-72
2023/10/01 07:09:24;;;;;;;0.50;0.50;;;14.50;99.90;;;;;;5068473;28;20036;-72
2023/10/01 07:11:52;;;;;;;0.70;0.70;;;14.50;99.90;;;;;;5075136;28;20093;-72
2023/10/01 07:14:29;;;;;;;0.40;0.40;;;14.60;99.90;;;;;;5060681;28;20048;-71
2023/10/01 07:16:56;;;;;;;0.65;0.65;;;14.60;99.90;;;;;;5037979;28;20298;-72
2023/10/01 07:19:22;;;;;;;1.48;1.27;;;14.60;99.90;;;;;;5057992;28;20090;-72
2023/10/01 07:21:56;;;;;;;1.75;1.48;;;14.60;99.90;;;;;;5037865;28;20048;-71
2023/10/01 07:24:23;;;;;;;1.80;0.82;;;14.60;99.90;;;;;;5059412;28;20115;-71
2023/10/01 07:26:50;;;;;;;0.80;0.80;;;14.60;99.90;;;;;;5056062;28;20045;-72
2023/10/01 07:29:16;;;;;;;0.47;0.47;;;14.60;99.90;;;;;;5068887;28;20490;-72
2023/10/01 07:31:43;;;;;;;0.52;0.52;;;14.70;99.90;;;;;;5056000;28;20047;-72
2023/10/01 07:34:16;;;;;;;0.40;0.40;;;14.60;99.90;;;;;;5064818;28;20507;-71
2023/10/01 07:36:42;;;;;;;0.50;0.50;;;14.70;99.90;;;;;;5058542;28;20047;-72
2023/10/01 07:39:15;;;;;;;0.38;0.35;;;14.70;99.90;;;;;;5056553;28;20045;-72
2023/10/01 07:41:44;;;;;;;0.52;0.52;;;14.70;99.90;;;;;;5068312;28;20048;-72
2023/10/01 07:44:11;;;;;;;0.30;0.30;;;14.70;99.90;;;;;;5061447;28;20105;-71
2023/10/01 07:46:38;;;;;;;0.88;0.88;;;14.80;99.90;;;;;;5052511;28;22384;-70
2023/10/01 07:49:04;;;;;;;0.63;0.63;;;14.80;99.90;;;;;;5055037;28;20512;-71
2023/10/01 07:51:38;;;;;;;0.50;0.50;;;14.90;99.90;;;;;;5058368;28;20081;-71
2023/10/01 07:54:10;;;;;;;0.50;0.50;;;14.90;99.90;;;;;;5052782;28;20568;-72
2023/10/01 07:56:51;;;;;;;1.15;1.02;;;14.90;99.90;;;;;;5070357;28;20040;-72
2023/10/01 07:59:28;;;;;;;0.82;0.82;;;15.00;99.90;;;;;;5045860;28;20040;-72
2023/10/01 08:07:18;;;;;;;0.50;0.50;;;15.10;99.90;;;;;;5056912;28;20260;-71
2023/10/01 08:09:57;;;;;;;0.60;0.60;;;15.10;99.90;;;;;;5037878;28;20036;-72
2023/10/01 08:17:47;;;;;;;1.17;0.77;;;15.30;99.90;;;;;;5066387;28;20375;-72
2023/10/01 08:20:21;;;;;;;0.70;0.70;;;15.40;99.90;;;;;;5067901;28;20082;-72
2023/10/01 08:25:42;;;;;;;0.40;0.40;;;15.50;99.90;;;;;;5068732;28;20051;-72
2023/10/01 08:30:43;;;;;;;0.45;0.45;;;15.50;99.90;;;;;;5062785;28;20036;-70
2023/10/01 08:33:32;;;;;;;0.50;0.50;;;15.50;99.90;;;;;;5069807;28;20129;-72
2023/10/01 08:36:12;;;;;;;0.98;0.90;;;15.60;99.90;;;;;;5063285;28;20520;-72
2023/10/01 08:38:47;;;;;;;0.90;0.90;;;15.70;99.90;;;;;;5068396;28;20048;-71
2023/10/01 08:41:35;;;;;;;0.70;0.70;;;15.80;99.90;;;;;;5035584;28;20037;-72
2023/10/01 08:44:10;;;;;;;;;;;15.80;99.90;;;;;;5065811;28;20040;-71
2023/10/01 08:46:40;;;;;;;1.02;1.02;;;15.90;99.90;;;;;;5046728;28;20403;-72
2023/10/01 08:49:30;;;;;;;0.40;0.40;;;16.00;99.90;;;;;;5061779;28;20057;-71
2023/10/01 08:52:19;;;;;;;1.27;0.80;;;16.10;99.90;;;;;;5049780;28;20478;-72
2023/10/01 08:54:45;;;;;;;0.65;0.65;;;16.10;99.90;;;;;;5061242;28;20040;-72
2023/10/01 08:57:18;;;;;;;0.60;0.60;;;16.20;99.90;;;;;;5063833;28;20051;-71
2023/10/01 08:59:44;;;;;;;0.35;0.35;;;16.30;99.90;;;;;;5047105;28;20043;-72
2023/10/01 09:02:23;;;;;;;1.08;0.88;;;16.40;99.90;;;;;;5067153;28;20424;-72
2023/10/01 09:04:50;;;;;;;0.70;0.70;;;16.40;99.90;;;;;;5066687;28;20047;-72
2023/10/01 09:07:19;;;;;;;4.67;1.50;;;16.50;99.90;;;;;;5066590;28;20135;-71
2023/10/01 09:10:08;;;;;;;0.73;0.73;;;16.50;99.90;;;;;;5064205;28;20101;-71
2023/10/01 09:12:35;;;;;;;0.73;0.70;;;16.60;99.90;;;;;;5060875;28;20078;-72
2023/10/01 09:15:04;;;;;;;0.60;0.60;;;16.70;99.90;;;;;;5061782;28;20110;-72
2023/10/01 09:17:56;;;;;;;0.57;0.57;;;16.80;99.90;;;;;;5069690;28;20175;-72
2023/10/01 09:20:50;;;;;;;1.48;0.52;;;17.00;99.90;;;;;;5069649;28;20040;-72
2023/10/01 09:23:17;;;;;;;0.60;0.60;;;17.20;99.90;;;;;;5044779;28;20111;-72
2023/10/01 09:25:55;;;;;;;1.10;1.10;;;17.40;99.90;;;;;;5064344;28;20052;-72
2023/10/01 09:28:37;;;;;;;5.63;1.23;;;17.60;99.90;;;;;;5075094;28;20044;-70
2023/10/01 09:33:48;;;;;;;0.70;0.70;;;17.90;99.90;;;;;;5065650;28;20079;-72
2023/10/01 09:36:35;;;;;;;0.40;0.40;;;18.20;99.90;;;;;;5062154;28;20072;-72
2023/10/01 09:39:03;;;;;;;1.73;1.00;;;18.50;99.90;;;;;;5061258;28;20052;-72
2023/10/01 09:41:40;;;;;;;1.40;1.30;;;18.60;99.90;;;;;;5065099;28;20119;-71
2023/10/01 09:44:07;;;;;;;1.33;1.25;;;18.70;99.90;;;;;;5065355;28;20038;-73
2023/10/01 09:46:35;;;;;;;0.88;0.88;;;18.90;99.90;;;;;;5063084;28;20043;-71
2023/10/01 09:49:02;;;;;;;1.00;1.00;;;19.00;99.90;;;;;;5056454;28;20090;-72
2023/10/01 09:51:35;;;;;;;1.63;1.52;;;19.10;99.90;;;;;;5045124;28;20048;-72
2023/10/01 09:54:04;;;;;;;0.60;0.60;;;19.30;99.90;;;;;;5068378;28;20036;-72
2023/10/01 09:56:31;;;;;;;0.50;0.50;;;19.40;99.90;;;;;;5055020;28;20713;-72
2023/10/01 09:59:03;;;;;;;0.50;0.50;;;19.40;99.90;;;;;;5065984;28;20040;-71
2023/10/01 10:01:31;;;;;;;2.17;1.92;;;19.50;99.90;;;;;;5076620;28;20063;-71
2023/10/01 10:04:01;;;;;;;2.25;0.98;;;19.50;99.90;;;;;;5060381;28;20047;-72
2023/10/01 10:06:29;;;;;;;1.17;1.17;;;19.60;99.90;;;;;;5055878;28;20046;-71
2023/10/01 10:09:06;;;;;;;0.90;0.90;;;19.60;99.90;;;;;;5060413;28;20126;-73
2023/10/01 10:11:40;;;;;;;0.83;0.80;;;19.60;99.90;;;;;;5055163;28;20078;-73
2023/10/01 10:14:27;;;;;;;1.35;1.25;;;19.50;99.90;;;;;;5069352;28;20286;-73
2023/10/01 10:16:57;;;;;;;0.60;0.60;;;19.50;99.90;;;;;;5061984;28;20063;-72
2023/10/01 10:19:23;;;;;;;6.45;1.30;;;19.40;99.90;;;;;;5058969;28;20048;-72
2023/10/01 10:22:05;;;;;;;0.75;0.75;;;19.40;99.90;;;;;;5065355;28;20047;-72
2023/10/01 10:24:45;;;;;;;1.38;1.27;;;19.50;99.90;;;;;;5061483;28;20055;-72
2023/10/01 10:27:17;;;;;;;0.55;0.55;;;19.50;99.90;;;;;;5064638;28;20097;-72
2023/10/01 10:29:57;;;;;;;0.75;0.75;;;19.50;99.90;;;;;;5045461;28;20478;-72
2023/10/01 10:32:31;;;;;;;0.32;0.32;;;19.60;99.90;;;;;;5056401;28;20399;-71
2023/10/01 10:35:06;;;;;;;0.73;0.73;;;19.60;99.90;;;;;;5043263;28;20081;-71
2023/10/01 10:37:35;;;;;;;1.02;1.02;;;19.70;99.90;;;;;;5059710;28;20044;-72
2023/10/01 10:40:22;;;;;;;1.60;1.50;;;19.90;99.90;;;;;;5074052;28;20040;-71
2023/10/01 10:42:57;;;;;;;0.60;0.60;;;20.00;99.90;;;;;;5059506;28;20032;-72
2023/10/01 10:45:57;;;;;;;0.95;0.95;;;20.10;99.90;;;;;;5060003;28;20081;-72
2023/10/01 10:48:59;;;;;;;1.58;1.27;;;20.20;99.90;;;;;;5050317;28;20036;-71
2023/10/01 10:51:48;;;;;;;0.65;0.65;;;20.40;99.90;;;;;;5056320;28;20044;-72
2023/10/01 10:54:27;;;;;;;0.70;0.70;;;20.60;99.90;;;;;;5062050;28;20090;-72
2023/10/01 10:56:53;;;;;;;0.35;0.35;;;20.60;99.90;;;;;;5070075;28;20044;-71
2023/10/01 10:59:19;;;;;;;0.73;0.73;;;20.70;99.90;;;;;;5059338;28;20131;-72
2023/10/01 11:01:47;;;;;;;1.45;1.35;;;20.70;99.90;;;;;;5054070;28;20513;-72
2023/10/01 11:04:16;;;;;;;1.80;1.70;;;20.70;99.90;;;;;;5056329;28;20498;-71
2023/10/01 11:06:42;;;;;;;0.80;0.80;;;20.60;99.90;;;;;;5062548;28;20582;-72
2023/10/01 11:09:30;;;;;;;0.98;0.98;;;20.60;99.90;;;;;;5059170;28;20044;-71
2023/10/01 11:12:05;;;;;;;0.50;0.50;;;20.60;99.90;;;;;;5058090;28;20048;-71
2023/10/01 11:14:36;;;;;;;0.47;0.47;;;20.60;99.90;;;;;;5053790;28;20468;-72
2023/10/01 11:17:03;;;;;;;1.05;1.05;;;20.60;99.90;;;;;;5068046;28;20036;-72
2023/10/01 11:19:35;;;;;;;1.05;1.00;;;20.50;99.90;;;;;;5054812;28;20051;-71
2023/10/01 11:22:07;;;;;;;1.15;1.15;;;20.50;99.90;;;;;;5058939;28;20532;-72
2023/10/01 11:24:43;;;;;;;0.80;0.80;;;20.40;99.90;;;;;;5063719;28;20058;-71
2023/10/01 11:27:17;;;;;;;0.50;0.50;;;20.30;99.90;;;;;;5063465;28;20035;-72
2023/10/01 11:29:54;;;;;;;0.50;0.50;;;20.30;99.90;;;;;;5051281;28;20040;-73
2023/10/01 11:32:58;;;;;;;0.82;0.82;;;20.30;99.90;;;;;;5061240;28;20037;-73
2023/10/01 11:35:37;;;;;;;1.25;0.85;;;20.30;99.90;;;;;;5047879;28;20051;-73
2023/10/01 11:38:19;;;;;;;1.92;1.25;;;20.40;99.90;;;;;;5044350;28;20278;-73
2023/10/01 11:43:42;;;;;;;0.50;0.50;;;20.60;99.90;;;;;;5051074;28;20417;-73
2023/10/01 11:46:25;;;;;;;0.60;0.60;;;20.60;99.90;;;;;;5058581;28;20040;-74
2023/10/01 11:49:14;;;;;;;0.60;0.60;;;20.70;99.90;;;;;;5052755;28;20049;-72
2023/10/01 11:51:47;;;;;;;0.40;0.40;;;20.80;99.90;;;;;;5064502;28;20040;-73
2023/10/01 11:54:25;;;;;;;0.70;0.70;;;20.80;99.90;;;;;;5039460;28;20060;-73
2023/10/01 11:57:07;;;;;;;;;;;20.80;99.90;;;;;;5059421;28;20383;-73
2023/10/01 11:59:36;;;;;;;1.45;1.25;;;20.80;99.90;;;;;;5059899;28;20007;-73
2023/10/01 12:02:20;;;;;;;0.73;0.73;;;20.90;99.90;;;;;;5040929;28;20409;-73
2023/10/01 12:04:56;;;;;;;1.80;1.67;;;21.00;99.90;;;;;;5042472;28;20044;-71
2023/10/01 12:07:24;;;;;;;1.15;1.05;;;21.10;99.90;;;;;;5045104;28;20157;-72
2023/10/01 12:09:53;;;;;;;1.75;1.50;;;21.20;99.90;;;;;;5052614;28;20043;-73
2023/10/01 12:12:25;;;;;;;1.48;1.38;;;21.30;99.90;;;;;;5059742;28;20587;-74
2023/10/01 12:17:36;;;;;;;0.40;0.40;;;21.50;99.90;;;;;;5062122;28;20074;-73
2023/10/01 12:20:03;;;;;;;0.30;0.30;;;21.70;99.90;;;;;;5059228;28;20029;-74
2023/10/01 12:22:30;;;;;;;0.40;0.40;;;21.70;99.90;;;;;;5054442;28;20036;-73
2023/10/01 12:24:58;;;;;;;1.20;0.95;;;21.80;99.90;;;;;;5039644;28;20117;-73
2023/10/01 12:27:45;;;;;;;;;;;21.90;99.90;;;;;;5072228;28;20440;-73
2023/10/01 12:30:27;;;;;;;;;;;21.90;99.90;;;;;;5058775;28;20146;-73
2023/10/01 12:32:55;;;;;;;4.18;1.90;;;21.90;99.90;;;;;;5048797;28;19916;-73
2023/10/01 12:35:27;;;;;;;0.73;0.73;;;21.90;99.90;;;;;;5058510;28;20524;-72
2023/10/01 12:38:05;;;;;;;0.50;0.50;;;21.90;99.90;;;;;;5055854;28;20036;-73
2023/10/01 12:40:35;;;;;;;0.55;0.55;;;21.90;99.90;;;;;;5044347;28;20048;-71
2023/10/01 12:43:32;;;;;;;0.82;0.82;;;21.90;99.90;;;;;;5046854;28;20052;-73
2023/10/01 12:45:54;;;;;;;1.35;1.25;;;21.90;99.90;;;;;;5063274;28;20106;-72
2023/10/01 12:48:20;;;;;;;0.65;0.65;;;21.90;99.90;;;;;;5045187;28;20071;-73
2023/10/01 12:50:59;;;;;;;0.60;0.60;;;21.90;99.90;;;;;;5056520;28;20449;-73
2023/10/01 12:53:27;;;;;;;1.15;1.05;;;22.00;99.90;;;;;;5061256;28;20115;-73
2023/10/01 12:55:52;;;;;;;1.33;1.33;;;22.00;99.90;;;;;;5059298;28;20062;-73
2023/10/01 12:58:37;;;;;;;0.55;0.55;;;22.00;99.90;;;;;;5068405;28;20050;-72
2023/10/01 13:01:31;;;;;;;1.02;1.02;;;22.10;99.90;;;;;;5064606;28;20048;-71
2023/10/01 13:03:56;;;;;;;0.88;0.88;;;22.00;99.90;;;;;;5062633;28;20131;-72
2023/10/01 13:06:21;;;;;;;0.52;0.52;;;22.10;99.90;;;;;;5069336;28;20934;-72
2023/10/01 13:08:47;;;;;;;0.50;0.50;;;22.10;99.90;;;;;;5061904;28;20129;-72
2023/10/01 13:14:17;;;;;;;0.70;0.70;;;22.10;99.90;;;;;;5050380;28;20178;-72
2023/10/01 13:16:52;;;;;;;1.52;1.50;;;22.20;99.90;;;;;;5069773;28;20039;-72
2023/10/01 13:19:23;;;;;;;0.52;0.52;;;22.40;99.90;;;;;;5059831;28;20044;-72
2023/10/01 13:21:49;;;;;;;0.60;0.60;;;22.50;99.90;;;;;;5054729;28;20485;-72
2023/10/01 13:24:17;;;;;;;0.40;0.40;;;22.60;99.90;;;;;;5064432;28;20045;-72
2023/10/01 13:26:42;;;;;;;0.85;0.85;;;22.70;99.90;;;;;;5049941;28;20043;-72
2023/10/01 13:29:28;;;;;;;0.65;0.65;;;22.80;99.90;;;;;;5063700;28;20047;-73
2023/10/01 13:32:02;;;;;;;2.35;2.17;;;22.80;99.90;;;;;;5040540;28;20040;-73
2023/10/01 13:34:54;;;;;;;0.98;0.90;;;22.80;99.90;;;;;;5044407;28;20558;-73
2023/10/01 13:40:12;;;;;;;6.40;2.55;;;22.80;99.90;;;;;;5061072;28;20586;-73
2023/10/01 14:10:04;;;;;;;0.73;0.43;;;22.80;99.90;;;;;;5055233;28;20057;-72
2023/10/01 14:12:54;;;;;;;3.85;1.17;;;22.80;99.90;;;;;;5057697;28;20044;-73
2023/10/01 14:15:21;;;;;;;1.88;1.77;;;22.70;99.90;;;;;;5042123;28;20068;-73
2023/10/01 14:17:54;;;;;;;1.42;1.23;;;22.80;99.90;;;;;;5043147;28;20654;-72
2023/10/01 14:20:43;;;;;;;0.70;0.70;;;22.80;99.90;;;;;;5057496;28;20041;-72
2023/10/01 14:23:22;;;;;;;0.73;0.73;;;22.80;99.90;;;;;;5051647;28;20072;-72
2023/10/01 14:25:53;;;;;;;2.63;1.65;;;22.80;99.90;;;;;;5062168;28;20040;-73
2023/10/01 14:28:23;;;;;;;4.03;1.20;;;22.80;99.90;;;;;;5048648;28;20041;-73